createdAt,value
2023-01-06T00:01:36.084Z,5.10
2023-01-06T00:04:05.876Z,5.80
2023-01-06T00:06:35.113Z,5.80
2023-01-06T00:09:05.550Z,6.20
2023-01-06T00:11:35.137Z,9.00
2023-01-06T00:14:06.179Z,6.90
2023-01-06T00:16:37.176Z,6.80
2023-01-06T00:19:06.902Z,5.50
2023-01-06T00:21:36.115Z,5.00
2023-01-06T00:24:06.054Z,5.10
2023-01-06T00:26:35.395Z,4.30
2023-01-06T00:29:05.138Z,4.10
2023-01-06T00:31:34.612Z,6.40
2023-01-06T00:34:04.473Z,7.30
2023-01-06T00:36:34.195Z,6.20
2023-01-06T00:39:04.953Z,6.60
2023-01-06T00:41:52.344Z,8.30
2023-01-06T00:44:22.010Z,7.00
2023-01-06T00:46:51.422Z,6.20
2023-01-06T00:49:20.757Z,5.80
2023-01-06T00:51:50.973Z,6.50
2023-01-06T00:54:20.918Z,5.30
2023-01-06T00:56:53.107Z,8.10
2023-01-06T00:59:23.937Z,8.20
2023-01-06T01:01:55.508Z,6.10
2023-01-06T01:04:26.202Z,4.90
2023-01-06T01:06:56.953Z,7.00
2023-01-06T01:09:28.536Z,5.70
2023-01-06T01:12:10.331Z,7.20
2023-01-06T01:14:42.297Z,6.60
2023-01-06T01:17:13.615Z,5.10
2023-01-06T01:19:43.055Z,5.10
2023-01-06T01:22:13.298Z,6.80
2023-01-06T01:24:42.743Z,7.80
2023-01-06T01:27:13.720Z,6.20
2023-01-06T01:29:43.180Z,5.50
2023-01-06T01:32:12.738Z,5.10
2023-01-06T01:34:42.143Z,5.10
2023-01-06T01:37:11.833Z,5.90
2023-01-06T01:39:41.445Z,7.60
2023-01-06T01:42:17.755Z,6.30
2023-01-06T01:45:03.739Z,4.90
2023-01-06T01:47:41.857Z,7.90
2023-01-06T01:50:23.862Z,7.50
2023-01-06T01:52:56.632Z,3.80
2023-01-06T01:55:27.984Z,7.00
2023-01-06T01:58:01.096Z,5.60
2023-01-06T02:00:31.089Z,6.00
2023-01-06T02:03:01.030Z,6.40
2023-01-06T02:05:32.953Z,8.40
2023-01-06T02:08:07.784Z,6.20
2023-01-06T02:10:37.655Z,6.80
2023-01-06T02:13:07.613Z,6.30
2023-01-06T02:15:37.437Z,5.40
2023-01-06T02:18:24.334Z,7.20
2023-01-06T02:21:36.355Z,8.00
2023-01-06T02:24:37.282Z,7.70
2023-01-06T02:27:40.973Z,7.00
2023-01-06T02:30:34.096Z,6.50
2023-01-06T02:33:14.005Z,6.40
2023-01-06T02:35:57.984Z,6.80
2023-01-06T02:38:42.933Z,6.00
2023-01-06T02:41:28.353Z,9.40
2023-01-06T02:44:04.674Z,7.20
2023-01-06T02:46:55.405Z,7.00
2023-01-06T02:49:31.614Z,6.10
2023-01-06T02:52:06.915Z,7.30
2023-01-06T02:54:50.110Z,6.50
2023-01-06T02:57:29.272Z,6.00
2023-01-06T03:00:08.976Z,8.50
2023-01-06T03:02:41.143Z,8.60
2023-01-06T03:05:15.842Z,9.70
2023-01-06T03:07:47.513Z,7.90
2023-01-06T03:10:20.016Z,10.30
2023-01-06T03:12:55.792Z,11.30
2023-01-06T03:15:26.405Z,8.30
2023-01-06T03:17:56.485Z,8.90
2023-01-06T03:20:25.948Z,7.50
2023-01-06T03:22:55.513Z,9.30
2023-01-06T03:25:25.624Z,8.50
2023-01-06T03:27:55.239Z,8.00
2023-01-06T03:30:28.719Z,8.50
2023-01-06T03:33:07.510Z,9.00
2023-01-06T03:35:56.422Z,7.70
2023-01-06T03:38:39.888Z,7.60
2023-01-06T03:41:19.380Z,8.10
2023-01-06T03:43:59.147Z,9.20
2023-01-06T03:46:36.523Z,7.00
2023-01-06T03:49:09.720Z,7.60
2023-01-06T03:51:48.355Z,7.80
2023-01-06T03:54:31.803Z,7.50
2023-01-06T03:57:06.755Z,6.40
2023-01-06T03:59:41.842Z,6.50
2023-01-06T04:02:11.733Z,4.20
2023-01-06T04:04:41.399Z,4.10
2023-01-06T04:07:11.234Z,2.90
2023-01-06T04:09:42.386Z,2.90
2023-01-06T04:12:29.882Z,3.20
2023-01-06T04:14:59.465Z,3.20
2023-01-06T04:17:28.850Z,3.50
2023-01-06T04:19:58.423Z,3.70
2023-01-06T04:22:28.195Z,2.80
2023-01-06T04:24:57.875Z,3.70
2023-01-06T04:27:27.246Z,3.10
2023-01-06T04:29:56.795Z,4.00
2023-01-06T04:32:26.883Z,3.30
2023-01-06T04:34:56.358Z,4.00
2023-01-06T04:37:25.742Z,2.60
2023-01-06T04:39:55.037Z,3.40
2023-01-06T04:42:24.502Z,3.20
2023-01-06T04:44:53.793Z,2.60
2023-01-06T04:47:23.364Z,3.40
2023-01-06T04:49:52.743Z,3.50
2023-01-06T04:52:22.029Z,3.20
2023-01-06T04:54:51.485Z,3.80
2023-01-06T04:57:20.841Z,4.80
2023-01-06T04:59:50.086Z,4.20
2023-01-06T05:02:19.544Z,2.40
2023-01-06T05:04:48.876Z,3.20
2023-01-06T05:07:18.347Z,4.30
2023-01-06T05:09:47.807Z,2.70
2023-01-06T05:12:17.282Z,3.70
2023-01-06T05:14:46.658Z,3.40
2023-01-06T05:17:16.045Z,3.70
2023-01-06T05:19:45.674Z,2.80
2023-01-06T05:22:15.198Z,3.20
2023-01-06T05:24:44.514Z,3.10
2023-01-06T05:27:13.870Z,3.20
2023-01-06T05:29:43.563Z,4.00
2023-01-06T05:32:13.115Z,3.50
2023-01-06T05:34:42.455Z,4.30
2023-01-06T05:37:11.857Z,3.40
2023-01-06T05:39:41.337Z,3.50
2023-01-06T05:42:10.855Z,3.60
2023-01-06T05:44:40.244Z,3.70
2023-01-06T05:47:09.664Z,5.00
2023-01-06T05:49:39.209Z,5.10
2023-01-06T05:52:08.699Z,4.90
2023-01-06T05:54:38.886Z,4.80
2023-01-06T05:57:09.510Z,4.70
2023-01-06T05:59:39.096Z,4.80
2023-01-06T06:02:09.209Z,5.60
2023-01-06T06:04:40.799Z,5.80
2023-01-06T06:07:10.326Z,6.30
2023-01-06T06:09:40.176Z,8.10
2023-01-06T06:12:09.704Z,5.60
2023-01-06T06:14:39.985Z,4.60
2023-01-06T06:17:09.403Z,7.30
2023-01-06T06:19:39.193Z,4.60
2023-01-06T06:22:10.662Z,6.90
2023-01-06T06:24:40.317Z,6.10
2023-01-06T06:27:09.597Z,6.10
2023-01-06T06:29:39.075Z,6.40
2023-01-06T06:32:08.595Z,6.50
2023-01-06T06:34:38.043Z,6.60
2023-01-06T06:37:07.614Z,3.10
2023-01-06T06:39:36.927Z,5.40
2023-01-06T06:42:07.065Z,5.80
2023-01-06T06:44:36.482Z,6.40
2023-01-06T06:47:06.589Z,4.90
2023-01-06T06:49:36.045Z,6.00
2023-01-06T06:52:05.726Z,5.60
2023-01-06T06:54:35.333Z,6.50
2023-01-06T06:57:05.076Z,5.90
2023-01-06T06:59:36.189Z,4.80
2023-01-06T07:02:05.733Z,6.40
2023-01-06T07:04:40.434Z,5.60
2023-01-06T07:07:10.173Z,7.10
2023-01-06T07:09:39.765Z,5.80
2023-01-06T07:12:10.145Z,5.60
2023-01-06T07:14:39.807Z,5.00
2023-01-06T07:17:09.394Z,5.30
2023-01-06T07:19:39.079Z,6.00
2023-01-06T07:22:09.359Z,5.90
2023-01-06T07:24:39.155Z,5.90
2023-01-06T07:27:08.482Z,5.60
2023-01-06T07:29:37.885Z,5.10
2023-01-06T07:32:10.075Z,6.70
2023-01-06T07:34:40.194Z,5.00
2023-01-06T07:37:09.751Z,5.70
2023-01-06T07:39:39.257Z,5.40
2023-01-06T07:42:10.294Z,4.90
2023-01-06T07:44:40.065Z,6.30
2023-01-06T07:47:11.314Z,6.40
2023-01-06T07:49:45.484Z,5.70
2023-01-06T07:52:14.817Z,6.90
2023-01-06T07:54:44.555Z,5.40
2023-01-06T07:57:13.932Z,6.50
2023-01-06T07:59:43.275Z,6.50
2023-01-06T08:02:12.963Z,5.70
2023-01-06T08:04:42.707Z,8.30
2023-01-06T08:07:14.132Z,8.60
2023-01-06T08:09:43.460Z,12.30
2023-01-06T08:12:12.987Z,7.30
2023-01-06T08:14:42.535Z,10.60
2023-01-06T08:17:12.517Z,13.70
2023-01-06T08:19:44.265Z,7.90
2023-01-06T08:22:13.667Z,8.40
2023-01-06T08:24:43.137Z,12.70
2023-01-06T08:27:12.603Z,10.60
2023-01-06T08:29:42.097Z,9.20
2023-01-06T08:32:11.674Z,9.20
2023-01-06T08:34:41.674Z,8.00
2023-01-06T08:37:12.439Z,6.40
2023-01-06T08:39:42.214Z,7.40
2023-01-06T08:42:12.464Z,6.40
2023-01-06T08:44:45.424Z,5.50
2023-01-06T08:47:15.722Z,5.30
2023-01-06T08:49:47.819Z,5.50
2023-01-06T08:52:17.543Z,6.00
2023-01-06T08:54:47.076Z,6.40
2023-01-06T08:57:16.526Z,5.20
2023-01-06T08:59:46.317Z,4.90
2023-01-06T09:02:15.811Z,6.70
2023-01-06T09:04:45.411Z,5.60
2023-01-06T09:07:15.059Z,7.50
2023-01-06T09:09:44.573Z,5.70
2023-01-06T09:12:14.054Z,5.90
2023-01-06T09:14:43.838Z,6.00
2023-01-06T09:17:13.264Z,5.10
2023-01-06T09:19:43.013Z,5.70
2023-01-06T09:22:12.741Z,8.10
2023-01-06T09:24:42.402Z,11.40
2023-01-06T09:27:11.804Z,8.00
2023-01-06T09:29:43.263Z,8.30
2023-01-06T09:32:12.672Z,7.90
2023-01-06T09:34:42.198Z,8.20
2023-01-06T09:37:15.137Z,7.10
2023-01-06T09:39:44.619Z,8.50
2023-01-06T09:42:37.352Z,9.50
2023-01-06T09:45:12.021Z,8.10
2023-01-06T09:47:48.514Z,6.80
2023-01-06T09:50:30.585Z,6.40
2023-01-06T09:53:05.903Z,9.40
2023-01-06T09:55:40.877Z,7.70
2023-01-06T09:58:15.161Z,6.80
2023-01-06T10:00:46.376Z,6.90
2023-01-06T10:03:18.513Z,7.50
2023-01-06T10:06:00.025Z,10.00
2023-01-06T10:08:42.068Z,7.40
2023-01-06T10:11:15.337Z,7.60
2023-01-06T10:13:56.504Z,7.60
2023-01-06T10:16:40.072Z,8.90
2023-01-06T10:19:27.790Z,7.80
2023-01-06T10:22:08.298Z,7.20
2023-01-06T10:24:50.693Z,7.50
2023-01-06T10:27:28.651Z,7.10
2023-01-06T10:30:02.957Z,6.40
2023-01-06T10:32:36.843Z,6.40
2023-01-06T10:35:14.120Z,6.80
2023-01-06T10:37:46.484Z,6.00
2023-01-06T10:40:21.542Z,6.70
2023-01-06T10:42:58.493Z,7.60
2023-01-06T10:45:32.714Z,8.80
2023-01-06T10:48:04.048Z,6.80
2023-01-06T10:50:35.417Z,8.90
2023-01-06T10:53:05.493Z,7.60
2023-01-06T10:55:41.109Z,7.40
2023-01-06T10:58:20.013Z,9.00
2023-01-06T11:01:01.402Z,8.10
2023-01-06T11:03:33.685Z,8.60
2023-01-06T11:06:15.625Z,9.70
2023-01-06T11:08:46.073Z,11.10
2023-01-06T11:11:27.859Z,16.40
2023-01-06T11:14:00.388Z,9.90
2023-01-06T11:16:32.531Z,9.30
2023-01-06T11:19:05.510Z,11.20
2023-01-06T11:21:44.432Z,6.80
2023-01-06T11:24:19.651Z,9.50
2023-01-06T11:26:53.901Z,9.90
2023-01-06T11:29:31.343Z,10.30
2023-01-06T11:32:06.428Z,10.90
2023-01-06T11:34:36.195Z,12.30
2023-01-06T11:37:06.100Z,12.60
2023-01-06T11:39:37.557Z,23.60
2023-01-06T11:42:13.820Z,14.10
2023-01-06T11:44:43.756Z,13.10
2023-01-06T11:47:17.435Z,12.10
2023-01-06T11:49:50.758Z,9.80
2023-01-06T11:52:24.969Z,9.90
2023-01-06T11:55:21.542Z,10.60
2023-01-06T11:57:59.956Z,8.70
2023-01-06T12:00:39.148Z,10.00
2023-01-06T12:03:19.004Z,11.40
2023-01-06T12:05:56.893Z,7.60
2023-01-06T12:08:32.003Z,10.40
2023-01-06T12:11:07.194Z,9.30
2023-01-06T12:13:44.188Z,10.20
2023-01-06T12:16:25.165Z,10.80
2023-01-06T12:18:55.832Z,8.80
2023-01-06T12:21:31.202Z,9.00
2023-01-06T12:24:05.351Z,10.00
2023-01-06T12:26:35.655Z,9.10
2023-01-06T12:29:06.787Z,7.40
2023-01-06T12:31:48.296Z,6.20
2023-01-06T12:34:22.761Z,7.60
2023-01-06T12:36:59.035Z,7.30
2023-01-06T12:39:36.253Z,7.00
2023-01-06T12:42:16.380Z,8.40
2023-01-06T12:44:51.442Z,8.20
2023-01-06T12:47:28.595Z,8.40
2023-01-06T12:50:02.326Z,9.00
2023-01-06T12:55:04.351Z,7.00
2023-01-06T12:57:47.118Z,5.50
2023-01-06T13:00:37.427Z,7.20
2023-01-06T13:03:55.872Z,6.80
2023-01-06T13:06:43.601Z,7.70
2023-01-06T13:09:25.462Z,8.00
2023-01-06T13:12:13.365Z,6.90
2023-01-06T13:14:49.351Z,6.70
2023-01-06T13:17:24.433Z,5.90
2023-01-06T13:19:56.199Z,4.70
2023-01-06T13:22:39.367Z,5.70
2023-01-06T13:25:28.931Z,4.50
2023-01-06T13:28:08.903Z,7.10
2023-01-06T13:30:58.504Z,6.30
2023-01-06T13:33:48.475Z,3.60
2023-01-06T13:36:41.831Z,5.40
2023-01-06T13:39:16.373Z,6.50
2023-01-06T13:41:49.621Z,6.60
2023-01-06T13:44:23.722Z,6.40
2023-01-06T13:47:03.461Z,7.80
2023-01-06T13:49:37.932Z,6.60
2023-01-06T13:52:15.161Z,6.50
2023-01-06T13:55:22.613Z,6.20
2023-01-06T13:57:52.456Z,8.30
2023-01-06T14:00:25.336Z,9.50
2023-01-06T14:03:25.378Z,6.60
2023-01-06T14:05:59.242Z,8.10
2023-01-06T14:08:37.949Z,7.50
2023-01-06T14:11:25.351Z,7.00
2023-01-06T14:13:57.420Z,8.40
2023-01-06T14:16:43.031Z,7.80
2023-01-06T14:19:17.766Z,6.20
2023-01-06T14:21:48.943Z,6.20
2023-01-06T14:24:27.904Z,8.20
2023-01-06T14:27:00.752Z,7.80
2023-01-06T14:30:03.978Z,6.20
2023-01-06T14:33:08.365Z,7.20
2023-01-06T14:35:43.455Z,5.30
2023-01-06T14:38:24.240Z,6.80
2023-01-06T14:40:58.038Z,6.60
2023-01-06T14:43:38.723Z,7.20
2023-01-06T14:46:19.225Z,9.20
2023-01-06T14:48:54.151Z,9.20
2023-01-06T14:51:24.397Z,8.40
2023-01-06T14:54:00.362Z,8.60
2023-01-06T14:56:31.180Z,7.60
2023-01-06T14:59:16.138Z,8.10
2023-01-06T15:02:00.499Z,9.40
2023-01-06T15:04:38.923Z,8.70
2023-01-06T15:07:24.033Z,9.20
2023-01-06T15:10:15.147Z,7.50
2023-01-06T15:12:56.849Z,8.30
2023-01-06T15:15:34.290Z,9.80
2023-01-06T15:18:14.507Z,8.30
2023-01-06T15:20:49.848Z,5.20
2023-01-06T15:23:21.793Z,7.20
2023-01-06T15:25:53.261Z,6.90
2023-01-06T15:28:26.932Z,8.80
2023-01-06T15:30:57.569Z,9.20
2023-01-06T15:33:33.312Z,9.00
2023-01-06T15:36:03.629Z,9.20
2023-01-06T15:38:36.692Z,9.30
2023-01-06T15:41:27.472Z,10.60
2023-01-06T15:43:57.672Z,10.60
2023-01-06T15:46:36.256Z,11.10
2023-01-06T15:49:06.815Z,11.40
2023-01-06T15:51:36.340Z,11.30
2023-01-06T15:54:06.361Z,11.30
2023-01-06T15:56:36.401Z,12.40
2023-01-06T15:59:13.914Z,18.10
2023-01-06T16:01:50.615Z,19.30
2023-01-06T16:04:21.782Z,22.50
2023-01-06T16:06:52.022Z,18.50
2023-01-06T16:09:35.603Z,25.00
2023-01-06T16:12:22.409Z,28.80
2023-01-06T16:14:52.046Z,24.10
2023-01-06T16:17:29.437Z,26.40
2023-01-06T16:20:01.127Z,28.00
2023-01-06T16:22:38.059Z,29.50
2023-01-06T16:25:23.814Z,25.70
2023-01-06T16:27:56.573Z,24.30
2023-01-06T16:30:28.247Z,23.40
2023-01-06T16:33:00.242Z,19.30
2023-01-06T16:35:31.773Z,22.30
2023-01-06T16:38:03.794Z,25.30
2023-01-06T16:40:33.324Z,25.80
2023-01-06T16:43:03.610Z,27.30
2023-01-06T16:45:38.272Z,25.80
2023-01-06T16:48:09.255Z,23.00
2023-01-06T16:50:42.056Z,21.90
2023-01-06T16:53:15.895Z,13.70
2023-01-06T16:55:46.037Z,26.10
2023-01-06T16:58:17.848Z,29.50
2023-01-06T17:00:51.647Z,27.70
2023-01-06T17:03:23.474Z,27.70
2023-01-06T17:05:53.748Z,19.70
2023-01-06T17:08:27.894Z,24.00
2023-01-06T17:11:00.011Z,22.90
2023-01-06T17:13:38.669Z,23.50
2023-01-06T17:16:17.282Z,26.60
2023-01-06T17:18:55.229Z,30.10
2023-01-06T17:21:28.436Z,25.10
2023-01-06T17:24:02.705Z,30.30
2023-01-06T17:26:32.599Z,25.20
2023-01-06T17:29:03.220Z,23.70
2023-01-06T17:31:35.666Z,24.50
2023-01-06T17:34:14.842Z,21.00
2023-01-06T17:36:49.364Z,19.80
2023-01-06T17:39:22.862Z,22.60
2023-01-06T17:41:58.339Z,18.10
2023-01-06T17:44:34.776Z,22.40
2023-01-06T17:47:12.374Z,24.00
2023-01-06T17:49:44.267Z,20.70
2023-01-06T17:52:19.769Z,23.80
2023-01-06T17:55:15.538Z,20.80
2023-01-06T17:57:47.299Z,15.80
2023-01-06T18:00:27.840Z,16.30
2023-01-06T18:03:03.838Z,23.70
2023-01-06T18:06:08.600Z,24.10
2023-01-06T18:08:40.893Z,22.30
2023-01-06T18:11:30.205Z,25.60
2023-01-06T18:14:15.719Z,23.00
2023-01-06T18:16:48.217Z,24.80
2023-01-06T18:19:35.614Z,24.60
2023-01-06T18:22:14.524Z,22.50
2023-01-06T18:24:46.585Z,25.90
2023-01-06T18:27:23.423Z,28.20
2023-01-06T18:29:56.135Z,31.40
2023-01-06T18:32:31.622Z,13.80
2023-01-06T18:35:02.604Z,28.00
2023-01-06T18:37:33.574Z,23.20
2023-01-06T18:40:04.973Z,22.40
2023-01-06T18:42:37.103Z,23.40
2023-01-06T18:45:25.703Z,25.60
2023-01-06T18:47:59.390Z,24.80
2023-01-06T18:52:59.888Z,18.70
2023-01-06T18:55:37.316Z,22.60
2023-01-06T18:58:20.940Z,22.00
2023-01-06T19:00:55.092Z,22.60
2023-01-06T19:03:40.867Z,22.70
2023-01-06T19:06:47.811Z,23.00
2023-01-06T19:09:33.639Z,21.60
2023-01-06T19:12:27.270Z,21.20
2023-01-06T19:15:18.620Z,25.00
2023-01-06T19:17:58.830Z,28.50
2023-01-06T19:20:37.225Z,27.30
2023-01-06T19:23:21.304Z,26.50
2023-01-06T19:26:02.826Z,28.40
2023-01-06T19:28:40.596Z,27.50
2023-01-06T19:31:20.249Z,31.80
2023-01-06T19:33:58.477Z,27.90
2023-01-06T19:36:47.373Z,29.60
2023-01-06T19:39:35.207Z,29.40
2023-01-06T19:42:29.742Z,29.70
2023-01-06T19:45:04.093Z,33.90
2023-01-06T19:47:43.018Z,30.90
2023-01-06T19:50:20.946Z,27.70
2023-01-06T19:53:01.093Z,37.60
2023-01-06T19:55:35.874Z,37.30
2023-01-06T19:58:17.544Z,38.70
2023-01-06T20:00:50.922Z,38.30
2023-01-06T20:03:34.638Z,34.70
2023-01-06T20:06:08.133Z,35.30
2023-01-06T20:08:47.355Z,31.80
2023-01-06T20:11:20.075Z,29.70
2023-01-06T20:13:52.405Z,32.90
2023-01-06T20:16:27.802Z,28.60
2023-01-06T20:19:02.010Z,24.60
2023-01-06T20:21:34.496Z,26.50
2023-01-06T20:24:11.304Z,28.90
2023-01-06T20:26:44.149Z,25.30
2023-01-06T20:29:18.070Z,22.90
2023-01-06T20:31:52.364Z,24.80
2023-01-06T20:34:23.722Z,24.80
2023-01-06T20:36:54.123Z,24.20
2023-01-06T20:39:26.571Z,21.40
2023-01-06T20:42:00.359Z,24.10
2023-01-06T20:44:30.213Z,25.00
2023-01-06T20:46:59.874Z,24.40
2023-01-06T20:49:29.144Z,24.80
2023-01-06T20:51:58.648Z,27.90
2023-01-06T20:54:28.613Z,31.80
2023-01-06T20:56:58.166Z,28.40
2023-01-06T20:59:27.712Z,29.90
2023-01-06T21:01:57.370Z,29.50
2023-01-06T21:04:35.066Z,32.80
2023-01-06T21:07:06.489Z,29.40
2023-01-06T21:09:36.141Z,26.90
2023-01-06T21:12:09.893Z,30.00
2023-01-06T21:17:07.483Z,33.60
2023-01-06T21:19:36.936Z,29.30
2023-01-06T21:22:06.396Z,30.20
2023-01-06T21:24:35.816Z,23.00
2023-01-06T21:27:10.156Z,29.20
2023-01-06T21:29:40.004Z,28.90
2023-01-06T21:32:10.033Z,33.20
2023-01-06T21:34:39.338Z,28.90
2023-01-06T21:37:09.140Z,32.00
2023-01-06T21:39:39.435Z,29.30
2023-01-06T21:42:28.944Z,29.90
2023-01-06T21:45:09.664Z,21.70
2023-01-06T21:47:44.157Z,27.90
2023-01-06T21:50:13.615Z,31.30
2023-01-06T21:52:46.564Z,31.70
2023-01-06T21:55:17.318Z,32.10
2023-01-06T21:57:47.573Z,33.30
2023-01-06T22:00:17.865Z,31.70
2023-01-06T22:02:52.396Z,36.90
2023-01-06T22:05:23.075Z,28.70
2023-01-06T22:07:54.339Z,33.60
2023-01-06T22:10:26.346Z,30.10
2023-01-06T22:12:58.794Z,27.00
2023-01-06T22:15:29.399Z,25.50
2023-01-06T22:18:00.752Z,24.90
2023-01-06T22:20:32.184Z,26.00
2023-01-06T22:23:07.550Z,25.90
2023-01-06T22:25:37.081Z,26.30
2023-01-06T22:28:06.639Z,25.70
2023-01-06T22:30:36.326Z,25.30
2023-01-06T22:33:05.963Z,24.00
2023-01-06T22:35:35.472Z,22.60
2023-01-06T22:38:08.122Z,24.20
2023-01-06T22:40:37.496Z,27.50
2023-01-06T22:43:07.251Z,24.00
2023-01-06T22:45:36.847Z,21.60
2023-01-06T22:48:06.554Z,23.70
2023-01-06T22:50:39.833Z,20.10
2023-01-06T22:53:09.442Z,15.20
2023-01-06T22:55:38.947Z,17.80
2023-01-06T22:58:08.547Z,17.90
2023-01-06T23:00:38.085Z,17.40
2023-01-06T23:03:07.764Z,16.10
2023-01-06T23:05:37.224Z,14.80
2023-01-06T23:08:09.468Z,14.80
2023-01-06T23:10:38.874Z,15.10
2023-01-06T23:13:08.285Z,14.30
2023-01-06T23:15:37.687Z,14.70
2023-01-06T23:18:07.279Z,13.80
2023-01-06T23:20:36.615Z,13.30
2023-01-06T23:23:05.954Z,13.20
2023-01-06T23:25:35.357Z,14.10
2023-01-06T23:28:05.628Z,19.50
2023-01-06T23:30:35.012Z,16.30
2023-01-06T23:33:04.705Z,12.50
2023-01-06T23:35:34.003Z,12.20
2023-01-06T23:38:03.679Z,13.40
2023-01-06T23:40:33.273Z,9.60
2023-01-06T23:43:02.856Z,9.30
2023-01-06T23:45:32.213Z,14.80
2023-01-06T23:48:01.754Z,11.30
2023-01-06T23:50:31.120Z,12.00
2023-01-06T23:53:00.533Z,11.80
2023-01-06T23:55:29.803Z,11.30
2023-01-06T23:57:59.036Z,11.00
